Time,TemperatureF,DewpointF,PressureIn,WindDirection,WindDirectionDegrees,WindSpeedMPH,WindSpeedGustMPH,Humidity,HourlyPrecipIn,Conditions,Clouds,dailyrainin,SolarRadiationWatts/m^2,SoftwareType,DateUTC
2013-02-01 14:52:00,57.3,1.2,30.43,East,87,10.0,0.0,10,0.00,,,0.00,520,WeatherHawk,2013-02-01 20:52:00,
2013-02-01 14:53:00,57.0,-3.7,30.44,SE,129,4.0,0.0,8,0.00,,,0.00,516,WeatherHawk,2013-02-01 20:53:00,
2013-02-01 14:54:00,59.0,-2.2,30.43,SE,127,5.0,0.0,8,0.00,,,0.00,515,WeatherHawk,2013-02-01 20:54:00,
2013-02-01 14:59:00,59.7,-1.7,30.43,South,181,2.0,0.0,8,0.00,,,0.00,504,WeatherHawk,2013-02-01 20:59:00,
2013-02-01 15:04:00,58.8,2.4,30.43,SE,143,3.0,0.0,10,0.00,,,0.00,494,WeatherHawk,2013-02-01 21:04:00,
2013-02-01 15:09:00,57.1,1.1,30.42,ESE,102,6.0,0.0,10,0.00,,,0.00,482,WeatherHawk,2013-02-01 21:09:00,
2013-02-01 15:14:00,58.9,-2.3,30.41,SE,140,8.0,0.0,8,0.00,,,0.00,470,WeatherHawk,2013-02-01 21:14:00,
2013-02-01 15:19:00,58.0,-3.0,30.42,ESE,119,6.0,0.0,8,0.00,,,0.00,459,WeatherHawk,2013-02-01 21:19:00,
2013-02-01 15:24:00,59.6,-1.8,30.42,South,169,7.0,0.0,8,0.00,,,0.00,448,WeatherHawk,2013-02-01 21:24:00,
2013-02-01 15:29:00,58.6,0.0,30.42,SSE,155,4.0,0.0,9,0.00,,,0.00,435,WeatherHawk,2013-02-01 21:29:00,
2013-02-01 15:34:00,59.7,3.1,30.42,East,94,3.0,0.0,10,0.00,,,0.00,423,WeatherHawk,2013-02-01 21:34:00,
2013-02-01 15:39:00,58.5,2.1,30.42,SE,144,2.0,0.0,10,0.00,,,0.00,409,WeatherHawk,2013-02-01 21:39:00,
2013-02-01 15:44:00,59.7,-1.7,30.41,South,182,5.0,0.0,8,0.00,,,0.00,395,WeatherHawk,2013-02-01 21:44:00,
2013-02-01 15:49:00,59.9,5.3,30.41,SSW,203,2.0,0.0,11,0.00,,,0.00,381,WeatherHawk,2013-02-01 21:49:00,
2013-02-01 15:54:00,58.1,-2.9,30.40,SE,124,9.0,-999.0,8,0.00,,,0.00,370,WeatherHawk,2013-02-01 21:54:00,
2013-02-01 15:59:00,59.3,-2.0,30.40,SE,124,7.0,0.0,8,0.00,,,0.00,355,WeatherHawk,2013-02-01 21:59:00,
2013-02-01 16:04:00,59.2,2.7,30.40,SSW,198,7.0,0.0,10,0.00,,,0.00,338,WeatherHawk,2013-02-01 22:04:00,
2013-02-01 16:09:00,60.0,7.3,30.40,SSE,164,5.0,0.0,12,0.00,,,0.00,327,WeatherHawk,2013-02-01 22:09:00,
2013-02-01 16:14:00,59.8,3.1,30.39,SSE,149,5.0,0.0,10,0.00,,,0.00,313,WeatherHawk,2013-02-01 22:14:00,
2013-02-01 16:19:00,59.6,5.1,30.40,SSE,165,4.0,0.0,11,0.00,,,0.00,299,WeatherHawk,2013-02-01 22:19:00,
2013-02-01 16:24:00,60.2,1.2,30.41,SSE,164,3.0,0.0,9,0.00,,,0.00,285,WeatherHawk,2013-02-01 22:24:00,
2013-02-01 16:29:00,59.9,7.2,30.39,SE,144,8.0,0.0,12,0.00,,,0.00,267,WeatherHawk,2013-02-01 22:29:00,
2013-02-01 16:34:00,59.2,2.7,30.38,SSE,147,8.0,0.0,10,0.00,,,0.00,254,WeatherHawk,2013-02-01 22:34:00,
2013-02-01 16:39:00,60.4,5.7,30.39,SE,126,5.0,-999.0,11,0.00,,,0.00,239,WeatherHawk,2013-02-01 22:39:00,
2013-02-01 16:44:00,60.1,3.4,30.38,ESE,110,3.0,0.0,10,0.00,,,0.00,226,WeatherHawk,2013-02-01 22:44:00,
2013-02-01 16:49:00,59.6,6.9,30.40,East,99,4.0,0.0,12,0.00,,,0.00,210,WeatherHawk,2013-02-01 22:49:00,
2013-02-01 16:54:00,59.1,2.6,30.40,ESE,121,12.0,0.0,10,0.00,,,0.00,194,WeatherHawk,2013-02-01 22:54:00,
2013-02-01 16:59:00,59.7,3.0,30.38,SE,137,7.0,0.0,10,0.00,,,0.00,179,WeatherHawk,2013-02-01 22:59:00,
2013-02-01 17:04:00,59.6,3.0,30.38,SSE,165,6.0,-999.0,10,0.00,,,0.00,165,WeatherHawk,2013-02-01 23:04:00,
2013-02-01 17:09:00,59.3,4.8,30.38,ESE,122,9.0,0.0,11,0.00,,,0.00,150,WeatherHawk,2013-02-01 23:09:00,
2013-02-01 17:14:00,59.5,5.0,30.38,SE,141,6.0,11.0,11,0.00,,,0.00,136,WeatherHawk,2013-02-01 23:14:00,
2013-02-01 17:19:00,59.7,8.8,30.39,SE,134,5.0,11.0,13,0.00,,,0.00,121,WeatherHawk,2013-02-01 23:19:00,
2013-02-01 17:24:00,59.2,6.6,30.38,SE,145,11.0,-999.0,12,0.00,,,0.00,106,WeatherHawk,2013-02-01 23:24:00,
2013-02-01 17:29:00,59.3,8.5,30.39,SE,140,6.0,0.0,13,0.00,,,0.00,93,WeatherHawk,2013-02-01 23:29:00,
2013-02-01 17:34:00,59.2,6.6,30.38,SSE,152,7.0,0.0,12,0.00,,,0.00,74,WeatherHawk,2013-02-01 23:34:00,
2013-02-01 17:39:00,59.0,9.9,30.39,South,173,3.0,0.0,14,0.00,,,0.00,61,WeatherHawk,2013-02-01 23:39:00,
2013-02-01 17:44:00,59.0,6.5,30.39,SE,142,10.0,0.0,12,0.00,,,0.00,45,WeatherHawk,2013-02-01 23:44:00,
2013-02-01 17:49:00,58.8,6.3,30.39,SSE,148,4.0,-999.0,12,0.00,,,0.00,29,WeatherHawk,2013-02-01 23:49:00,
2013-02-01 17:54:00,58.5,7.9,30.38,SSE,155,4.0,0.0,13,0.00,,,0.00,14,WeatherHawk,2013-02-01 23:54:00,
2013-02-01 17:59:00,58.5,11.0,30.38,SE,139,6.0,-999.0,15,0.00,,,0.00,6,WeatherHawk,2013-02-01 23:59:00,
2013-02-01 18:04:00,58.2,12.2,30.38,SE,144,4.0,0.0,16,0.00,,,0.00,4,WeatherHawk,2013-02-02 00:04:00,
2013-02-01 18:09:00,58.0,10.6,30.38,SE,146,5.0,0.0,15,0.00,,,0.00,2,WeatherHawk,2013-02-02 00:09:00,
2013-02-01 18:14:00,57.7,10.4,30.38,SE,135,3.0,-999.0,15,0.00,,,0.00,1,WeatherHawk,2013-02-02 00:14:00,
2013-02-01 18:19:00,57.3,11.5,30.38,SE,128,1.0,0.0,16,0.00,,,0.00,1,WeatherHawk,2013-02-02 00:19:00,
2013-02-01 18:24:00,57.3,14.2,30.39,SE,138,2.0,0.0,18,0.00,,,0.00,0,WeatherHawk,2013-02-02 00:24:00,
2013-02-01 18:29:00,57.1,12.8,30.38,ESE,116,1.0,0.0,17,0.00,,,0.00,1,WeatherHawk,2013-02-02 00:29:00,
2013-02-01 18:34:00,56.6,13.6,30.39,SE,140,0.0,0.0,18,0.00,,,0.00,0,WeatherHawk,2013-02-02 00:34:00,
2013-02-01 18:39:00,57.1,15.3,30.39,ESE,117,1.0,0.0,19,0.00,,,0.00,0,WeatherHawk,2013-02-02 00:39:00,
2013-02-01 18:44:00,57.6,16.8,30.39,SE,129,2.0,0.0,20,0.00,,,0.00,0,WeatherHawk,2013-02-02 00:44:00,
2013-02-01 18:49:00,56.7,15.0,30.38,ESE,114,0.0,0.0,19,0.00,,,0.00,0,WeatherHawk,2013-02-02 00:49:00,
2013-02-01 18:54:00,56.3,18.0,30.39,ESE,113,0.0,0.0,22,0.00,,,0.00,1,WeatherHawk,2013-02-02 00:54:00,
2013-02-01 18:59:00,56.4,17.0,30.40,ESE,111,1.0,0.0,21,0.00,,,0.00,0,WeatherHawk,2013-02-02 00:59:00,
2013-02-01 19:04:00,56.5,17.1,30.40,SE,133,1.0,0.0,21,0.00,,,0.00,0,WeatherHawk,2013-02-02 01:04:00,
2013-02-01 19:09:00,55.7,15.3,30.40,SE,137,5.0,-999.0,20,0.00,,,0.00,1,WeatherHawk,2013-02-02 01:09:00,
2013-02-01 19:14:00,55.9,16.6,30.40,SE,139,3.0,0.0,21,0.00,,,0.00,0,WeatherHawk,2013-02-02 01:14:00,
2013-02-01 19:19:00,55.7,16.4,30.39,SE,141,4.0,-999.0,21,0.00,,,0.00,0,WeatherHawk,2013-02-02 01:19:00,
2013-02-01 19:24:00,55.7,16.4,30.38,SE,132,2.0,-999.0,21,0.00,,,0.00,1,WeatherHawk,2013-02-02 01:24:00,
2013-02-01 19:29:00,56.0,16.6,30.39,SE,129,4.0,0.0,21,0.00,,,0.00,0,WeatherHawk,2013-02-02 01:29:00,
2013-02-01 19:34:00,55.1,15.9,30.40,ESE,102,1.0,0.0,21,0.00,,,0.00,0,WeatherHawk,2013-02-02 01:34:00,
2013-02-01 19:39:00,55.2,17.1,30.40,East,101,3.0,0.0,22,0.00,,,0.00,0,WeatherHawk,2013-02-02 01:39:00,
2013-02-01 19:44:00,55.2,15.9,30.39,ESE,106,2.0,0.0,21,0.00,,,0.00,0,WeatherHawk,2013-02-02 01:44:00,
2013-02-01 19:49:00,55.4,17.2,30.40,ESE,122,3.0,0.0,22,0.00,,,0.00,0,WeatherHawk,2013-02-02 01:49:00,
2013-02-01 19:54:00,55.2,17.0,30.38,ESE,110,0.0,0.0,22,0.00,,,0.00,0,WeatherHawk,2013-02-02 01:54:00,
2013-02-01 19:59:00,54.2,18.2,30.39,East,101,0.0,0.0,24,0.00,,,0.00,0,WeatherHawk,2013-02-02 01:59:00,
2013-02-01 20:04:00,53.9,17.9,30.40,ESE,103,0.0,0.0,24,0.00,,,0.00,0,WeatherHawk,2013-02-02 02:04:00,
2013-02-01 20:09:00,53.6,19.5,30.40,East,100,0.0,-999.0,26,0.00,,,0.00,0,WeatherHawk,2013-02-02 02:09:00,
2013-02-01 20:14:00,53.8,19.7,30.40,ESE,106,4.0,0.0,26,0.00,,,0.00,0,WeatherHawk,2013-02-02 02:14:00,
2013-02-01 20:19:00,53.7,20.6,30.39,ESE,108,4.0,0.0,27,0.00,,,0.00,0,WeatherHawk,2013-02-02 02:19:00,
2013-02-01 20:24:00,53.4,20.3,30.39,ESE,122,3.0,0.0,27,0.00,,,0.00,1,WeatherHawk,2013-02-02 02:24:00,
2013-02-01 20:29:00,53.7,20.6,30.40,SE,134,4.0,-999.0,27,0.00,,,0.00,1,WeatherHawk,2013-02-02 02:29:00,
2013-02-01 20:34:00,53.0,19.0,30.40,SE,127,3.0,0.0,26,0.00,,,0.00,1,WeatherHawk,2013-02-02 02:34:00,
2013-02-01 20:39:00,53.3,19.3,30.39,ESE,120,5.0,0.0,26,0.00,,,0.00,0,WeatherHawk,2013-02-02 02:39:00,
2013-02-01 20:44:00,53.5,20.4,30.39,ESE,117,3.0,0.0,27,0.00,,,0.00,0,WeatherHawk,2013-02-02 02:44:00,
2013-02-01 20:49:00,52.8,19.8,30.39,ESE,122,3.0,0.0,27,0.00,,,0.00,0,WeatherHawk,2013-02-02 02:49:00,
2013-02-01 20:54:00,52.5,20.4,30.39,SE,124,3.0,0.0,28,0.00,,,0.00,0,WeatherHawk,2013-02-02 02:54:00,
2013-02-01 20:59:00,52.8,20.6,30.39,ESE,109,2.0,-999.0,28,0.00,,,0.00,0,WeatherHawk,2013-02-02 02:59:00,
2013-02-01 21:04:00,52.1,20.0,30.39,SSE,159,2.0,0.0,28,0.00,,,0.00,0,WeatherHawk,2013-02-02 03:04:00,
2013-02-01 21:09:00,51.9,21.5,30.39,ESE,113,0.0,0.0,30,0.00,,,0.00,0,WeatherHawk,2013-02-02 03:09:00,
2013-02-01 21:14:00,52.1,21.6,30.40,East,92,4.0,0.0,30,0.00,,,0.00,0,WeatherHawk,2013-02-02 03:14:00,
2013-02-01 21:19:00,52.1,21.6,30.40,East,100,3.0,0.0,30,0.00,,,0.00,0,WeatherHawk,2013-02-02 03:19:00,
2013-02-01 21:24:00,51.6,21.2,30.40,ESE,102,2.0,0.0,30,0.00,,,0.00,0,WeatherHawk,2013-02-02 03:24:00,
2013-02-01 21:29:00,51.6,21.2,30.40,ESE,102,2.0,0.0,30,0.00,,,0.00,0,WeatherHawk,2013-02-02 03:29:00,
2013-02-01 21:34:00,51.6,21.2,30.40,ESE,102,2.0,0.0,30,0.00,,,0.00,0,WeatherHawk,2013-02-02 03:34:00,
2013-02-01 21:39:00,51.6,21.2,30.40,ESE,102,2.0,0.0,30,0.00,,,0.00,0,WeatherHawk,2013-02-02 03:39:00,
2013-02-01 21:44:00,51.6,21.2,30.40,ESE,102,2.0,0.0,30,0.00,,,0.00,0,WeatherHawk,2013-02-02 03:44:00,
2013-02-01 21:49:00,51.6,21.2,30.40,ESE,102,2.0,0.0,30,0.00,,,0.00,0,WeatherHawk,2013-02-02 03:49:00,
2013-02-01 21:54:00,51.6,21.2,30.40,ESE,102,2.0,0.0,30,0.00,,,0.00,0,WeatherHawk,2013-02-02 03:54:00,
2013-02-01 21:59:00,51.6,21.2,30.40,ESE,102,2.0,0.0,30,0.00,,,0.00,0,WeatherHawk,2013-02-02 03:59:00,
2013-02-01 22:04:00,51.6,21.2,30.40,ESE,102,2.0,0.0,30,0.00,,,0.00,0,WeatherHawk,2013-02-02 04:04:00,
2013-02-01 22:09:00,51.6,21.2,30.40,ESE,102,2.0,0.0,30,0.00,,,0.00,0,WeatherHawk,2013-02-02 04:09:00,
2013-02-01 22:14:00,51.6,21.2,30.40,ESE,102,2.0,0.0,30,0.00,,,0.00,0,WeatherHawk,2013-02-02 04:14:00,
2013-02-01 22:19:00,51.6,21.2,30.40,ESE,102,2.0,0.0,30,0.00,,,0.00,0,WeatherHawk,2013-02-02 04:19:00,
2013-02-01 22:24:00,51.6,21.2,30.40,ESE,102,2.0,0.0,30,0.00,,,0.00,0,WeatherHawk,2013-02-02 04:24:00,
2013-02-01 22:29:00,51.6,21.2,30.40,ESE,102,2.0,0.0,30,0.00,,,0.00,0,WeatherHawk,2013-02-02 04:29:00,
2013-02-01 22:34:00,51.6,21.2,30.40,ESE,102,2.0,0.0,30,0.00,,,0.00,0,WeatherHawk,2013-02-02 04:34:00,
2013-02-01 22:39:00,51.6,21.2,30.40,ESE,102,2.0,0.0,30,0.00,,,0.00,0,WeatherHawk,2013-02-02 04:39:00,
2013-02-01 22:44:00,51.6,21.2,30.40,ESE,102,2.0,0.0,30,0.00,,,0.00,0,WeatherHawk,2013-02-02 04:44:00,
2013-02-01 22:49:00,51.6,21.2,30.40,ESE,102,2.0,0.0,30,0.00,,,0.00,0,WeatherHawk,2013-02-02 04:49:00,
2013-02-01 22:54:00,51.6,21.2,30.40,ESE,102,2.0,0.0,30,0.00,,,0.00,0,WeatherHawk,2013-02-02 04:54:00,
2013-02-01 22:59:00,51.6,21.2,30.40,ESE,102,2.0,0.0,30,0.00,,,0.00,0,WeatherHawk,2013-02-02 04:59:00,
2013-02-01 23:04:00,51.6,21.2,30.40,ESE,102,2.0,0.0,30,0.00,,,0.00,0,WeatherHawk,2013-02-02 05:04:00,
2013-02-01 23:09:00,51.6,21.2,30.40,ESE,102,2.0,0.0,30,0.00,,,0.00,0,WeatherHawk,2013-02-02 05:09:00,
2013-02-01 23:14:00,51.6,21.2,30.40,ESE,102,2.0,0.0,30,0.00,,,0.00,0,WeatherHawk,2013-02-02 05:14:00,
2013-02-01 23:19:00,51.6,21.2,30.40,ESE,102,2.0,0.0,30,0.00,,,0.00,0,WeatherHawk,2013-02-02 05:19:00,
2013-02-01 23:24:00,51.6,21.2,30.40,ESE,102,2.0,0.0,30,0.00,,,0.00,0,WeatherHawk,2013-02-02 05:24:00,
2013-02-01 23:29:00,51.6,21.2,30.40,ESE,102,2.0,0.0,30,0.00,,,0.00,0,WeatherHawk,2013-02-02 05:29:00,
2013-02-01 23:34:00,51.6,21.2,30.40,ESE,102,2.0,0.0,30,0.00,,,0.00,0,WeatherHawk,2013-02-02 05:34:00,
2013-02-01 23:39:00,51.6,21.2,30.40,ESE,102,2.0,0.0,30,0.00,,,0.00,0,WeatherHawk,2013-02-02 05:39:00,
2013-02-01 23:44:00,51.6,21.2,30.40,ESE,102,2.0,0.0,30,0.00,,,0.00,0,WeatherHawk,2013-02-02 05:44:00,
2013-02-01 23:49:00,51.6,21.2,30.40,ESE,102,2.0,0.0,30,0.00,,,0.00,0,WeatherHawk,2013-02-02 05:49:00,
2013-02-01 23:54:00,51.6,21.2,30.40,ESE,102,2.0,0.0,30,0.00,,,0.00,0,WeatherHawk,2013-02-02 05:54:00,